Bitter Creek, Wyoming
Current Conditions -  °F | °C
As of 7:54 AM on Sunday 23 Nov 2014 (Local Time) from KRKS Reporting Station
Light Snow Light Snow  
Wind Chill:   Ceiling: 4400
Heat Index: 24°   Visibility: 1mi
Dew Point: 20°   Wind: 21mph
Humidity: 84%   Direction: 260°W
Pressure: 29.91"   Gusts: 29mph
Location:  41.6045°N, 108.954°W
Report Text: KRKS 231454Z AUTO 26018G25KT 1SM -SN BR FEW011 BKN044 OVC055 M04/M07 A2991 RMK AO2 PK WND 27031/1423 UPB26E42SNB42 SLP156 P0000 60000 T10441067 53021
Loading
Personal Weather Stations






























Interactive Weather Map New forecast layout! Learn more

10-Day Weather Forecast

Advertisements
Track Severe Weather on mobile